createdAt,value
2019-02-22T00:02:00.278Z,65.40
2019-02-22T00:07:03.010Z,74.82
2019-02-22T00:12:04.422Z,70.45
2019-02-22T00:17:05.816Z,69.50
2019-02-22T00:22:07.114Z,74.00
2019-02-22T00:27:08.661Z,71.75
2019-02-22T00:32:10.997Z,74.67
2019-02-22T00:37:12.397Z,81.75
2019-02-22T00:42:13.758Z,84.62
2019-02-22T00:47:15.107Z,82.67
2019-02-22T00:52:16.428Z,85.85
2019-02-22T00:57:17.824Z,74.72
2019-02-22T01:02:21.484Z,69.07
2019-02-22T01:07:22.899Z,71.85
2019-02-22T01:12:24.180Z,81.45
2019-02-22T01:17:27.005Z,98.85
2019-02-22T01:22:28.924Z,108.37
2019-02-22T01:27:30.267Z,105.65
2019-02-22T01:32:31.835Z,108.95
2019-02-22T01:37:35.239Z,114.80
2019-02-22T01:42:36.551Z,130.45
2019-02-22T01:47:37.985Z,105.20
2019-02-22T01:52:39.507Z,126.45
2019-02-22T01:57:40.851Z,123.18
2019-02-22T02:02:42.378Z,110.05
2019-02-22T02:07:43.855Z,115.15
2019-02-22T02:12:45.412Z,105.07
2019-02-22T02:17:46.984Z,94.75
2019-02-22T02:22:48.553Z,98.45
2019-02-22T02:28:00.428Z,89.55
2019-02-22T02:33:02.617Z,83.00
2019-02-22T02:38:04.878Z,93.72
2019-02-22T02:43:06.322Z,91.78
2019-02-22T02:48:07.702Z,86.45
2019-02-22T02:53:09.080Z,92.67
2019-02-22T02:58:10.619Z,85.50
2019-02-22T03:03:12.049Z,78.92
2019-02-22T03:08:14.355Z,71.87
2019-02-22T03:13:17.372Z,74.07
2019-02-22T03:18:18.731Z,77.65
2019-02-22T03:23:20.041Z,78.47
2019-02-22T03:28:21.378Z,80.30
2019-02-22T03:33:22.663Z,78.57
2019-02-22T03:38:24.006Z,88.20
2019-02-22T03:43:25.315Z,96.63
2019-02-22T03:48:28.807Z,101.87
2019-02-22T03:53:32.353Z,87.35
2019-02-22T03:58:35.116Z,81.90
2019-02-22T04:03:37.523Z,62.30
2019-02-22T04:08:38.968Z,66.57
2019-02-22T04:13:40.704Z,69.22
2019-02-22T04:18:42.158Z,89.62
2019-02-22T04:23:43.911Z,96.55
2019-02-22T04:28:45.396Z,91.30
2019-02-22T04:33:46.698Z,103.60
2019-02-22T04:38:48.046Z,85.40
2019-02-22T04:43:51.265Z,93.65
2019-02-22T04:48:52.569Z,90.45
2019-02-22T04:53:54.029Z,79.35
2019-02-22T04:58:55.480Z,84.62
2019-02-22T05:03:56.909Z,75.72
2019-02-22T05:08:58.441Z,74.67
2019-02-22T05:14:18.482Z,75.55
2019-02-22T05:19:22.109Z,75.25
2019-02-22T05:24:23.555Z,78.87
2019-02-22T05:29:24.937Z,78.30
2019-02-22T05:34:26.354Z,75.62
2019-02-22T05:39:27.639Z,75.00
2019-02-22T05:44:29.051Z,82.10
2019-02-22T05:49:30.760Z,72.82
2019-02-22T05:54:33.270Z,77.90
2019-02-22T05:59:34.581Z,69.17
2019-02-22T06:04:36.016Z,70.57
2019-02-22T06:09:37.655Z,75.17
2019-02-22T06:14:43.392Z,63.08
2019-02-22T06:19:45.128Z,67.70
2019-02-22T06:24:46.495Z,68.50
2019-02-22T06:29:49.898Z,65.70
2019-02-22T06:34:52.265Z,64.92
2019-02-22T06:39:53.673Z,71.05
2019-02-22T06:44:55.058Z,62.85
2019-02-22T06:49:56.939Z,68.60
2019-02-22T06:54:58.457Z,66.62
2019-02-22T07:00:00.847Z,67.82
2019-02-22T07:05:04.422Z,74.32
2019-02-22T07:10:09.090Z,66.15
2019-02-22T07:15:10.752Z,76.05
2019-02-22T07:20:12.421Z,70.87
2019-02-22T07:25:13.963Z,74.10
2019-02-22T07:30:15.286Z,75.50
2019-02-22T07:35:16.806Z,72.03
2019-02-22T07:40:21.535Z,71.77
2019-02-22T07:45:22.943Z,79.42
2019-02-22T07:50:24.355Z,82.25
2019-02-22T07:55:25.746Z,79.05
2019-02-22T08:00:27.169Z,84.10
2019-02-22T08:05:28.952Z,82.17
2019-02-22T08:10:30.506Z,84.55
2019-02-22T08:15:31.881Z,76.75
2019-02-22T08:20:33.241Z,73.25
2019-02-22T08:25:34.584Z,72.85
2019-02-22T08:30:37.921Z,66.82
2019-02-22T08:35:39.728Z,65.30
2019-02-22T08:40:41.195Z,62.62
2019-02-22T08:45:42.534Z,61.53
2019-02-22T08:50:49.270Z,58.60
2019-02-22T08:55:52.591Z,64.35
2019-02-22T09:00:54.410Z,66.65
2019-02-22T09:05:55.866Z,68.25
2019-02-22T09:11:00.829Z,62.40
2019-02-22T09:16:00.995Z,64.35
2019-02-22T09:21:03.074Z,68.25
2019-02-22T09:26:04.518Z,67.82
2019-02-22T09:31:07.281Z,71.25
2019-02-22T09:36:08.618Z,71.80
2019-02-22T09:41:10.158Z,70.55
2019-02-22T09:46:11.547Z,67.42
2019-02-22T09:51:13.130Z,64.92
2019-02-22T09:56:14.538Z,60.35
2019-02-22T10:01:15.827Z,62.53
2019-02-22T10:06:17.410Z,63.50
2019-02-22T10:11:18.948Z,70.97
2019-02-22T10:16:20.313Z,66.70
2019-02-22T10:21:21.885Z,67.87
2019-02-22T10:26:23.568Z,68.90
2019-02-22T10:31:25.156Z,70.08
2019-02-22T10:36:26.606Z,73.37
2019-02-22T10:41:30.128Z,79.00
2019-02-22T10:46:33.196Z,71.95
2019-02-22T10:51:34.620Z,67.03
2019-02-22T10:56:36.092Z,68.87
2019-02-22T11:01:37.604Z,65.92
2019-02-22T11:06:39.512Z,66.67
2019-02-22T11:11:42.990Z,65.60
2019-02-22T11:16:44.284Z,68.37
2019-02-22T11:21:45.612Z,66.35
2019-02-22T11:26:47.037Z,68.15
2019-02-22T11:31:48.812Z,71.53
2019-02-22T11:36:50.377Z,67.55
2019-02-22T11:41:51.700Z,68.42
2019-02-22T11:46:53.167Z,67.70
2019-02-22T11:51:55.984Z,64.60
2019-02-22T11:56:57.658Z,68.62
2019-02-22T12:01:59.450Z,69.58
2019-02-22T12:12:21.329Z,67.62
2019-02-22T12:17:22.733Z,73.40
2019-02-22T12:22:24.264Z,62.00
2019-02-22T12:27:25.574Z,61.05
2019-02-22T12:32:27.618Z,69.05
2019-02-22T12:37:29.096Z,64.30
2019-02-22T12:42:30.536Z,69.92
2019-02-22T12:47:32.053Z,62.53
2019-02-22T12:52:35.517Z,51.53
2019-02-22T12:57:37.044Z,49.05
2019-02-22T13:02:38.366Z,43.65
2019-02-22T13:07:39.880Z,50.58
2019-02-22T13:12:41.437Z,48.75
2019-02-22T13:17:42.806Z,61.37
2019-02-22T13:22:44.117Z,55.67
2019-02-22T13:27:45.496Z,53.95
2019-02-22T13:32:47.151Z,50.60
2019-02-22T13:37:49.310Z,55.95
2019-02-22T13:42:50.765Z,60.63
2019-02-22T13:47:52.512Z,61.58
2019-02-22T13:52:55.504Z,62.40
2019-02-22T13:57:56.924Z,60.95
2019-02-22T14:02:58.327Z,64.90
2019-02-22T14:08:00.109Z,63.13
2019-02-22T14:13:01.465Z,64.92
2019-02-22T14:18:03.200Z,64.00
2019-02-22T14:23:22.962Z,65.70
2019-02-22T14:28:24.429Z,66.95
2019-02-22T14:33:25.816Z,66.12
2019-02-22T14:38:27.081Z,67.32
2019-02-22T14:43:28.398Z,64.97
2019-02-22T14:48:29.693Z,63.20
2019-02-22T14:53:31.356Z,51.40
2019-02-22T14:58:33.010Z,54.30
2019-02-22T15:03:35.007Z,50.03
2019-02-22T15:08:39.528Z,42.27
2019-02-22T15:13:40.937Z,45.28
2019-02-22T15:18:42.498Z,42.05
2019-02-22T15:23:44.953Z,52.10
2019-02-22T15:28:46.266Z,54.85
2019-02-22T15:33:47.595Z,55.73
2019-02-22T15:38:48.993Z,54.08
2019-02-22T15:43:50.363Z,64.25
2019-02-22T15:48:51.690Z,64.37
2019-02-22T15:53:53.143Z,61.68
2019-02-22T15:58:54.450Z,60.50
2019-02-22T16:03:57.794Z,63.58
2019-02-22T16:08:59.183Z,61.63
2019-02-22T16:14:02.169Z,58.52
2019-02-22T16:19:04.110Z,55.83
2019-02-22T16:24:05.560Z,54.77
2019-02-22T16:29:07.136Z,51.83
2019-02-22T16:34:08.432Z,52.83
2019-02-22T16:39:10.178Z,45.45
2019-02-22T16:44:11.622Z,49.38
2019-02-22T16:49:12.944Z,46.25
2019-02-22T16:54:14.305Z,44.60
2019-02-22T16:59:16.530Z,55.28
2019-02-22T17:04:18.869Z,54.63
2019-02-22T17:09:20.394Z,54.25
2019-02-22T17:14:21.697Z,47.78
2019-02-22T17:19:23.475Z,49.77
2019-02-22T17:24:25.175Z,48.68
2019-02-22T17:29:26.596Z,46.88
2019-02-22T17:34:28.015Z,46.70
2019-02-22T17:39:29.329Z,45.55
2019-02-22T17:44:32.627Z,44.65
2019-02-22T17:49:34.163Z,46.53
2019-02-22T17:54:35.523Z,49.48
2019-02-22T17:59:36.992Z,48.50
2019-02-22T18:04:38.390Z,47.15
2019-02-22T18:09:39.805Z,46.15
2019-02-22T18:14:41.149Z,53.58
2019-02-22T18:19:42.489Z,48.42
2019-02-22T18:24:44.192Z,52.08
2019-02-22T18:29:45.609Z,50.12
2019-02-22T18:34:47.077Z,49.27
2019-02-22T18:39:48.418Z,49.03
2019-02-22T18:44:49.913Z,52.67
2019-02-22T18:49:51.290Z,53.98
2019-02-22T18:54:55.454Z,56.25
2019-02-22T18:59:56.979Z,53.85
2019-02-22T19:04:58.361Z,51.08
2019-02-22T19:09:59.679Z,49.75
2019-02-22T19:15:01.542Z,55.88
2019-02-22T19:20:08.431Z,50.83
2019-02-22T19:25:10.201Z,51.10
2019-02-22T19:30:16.014Z,52.35
2019-02-22T19:35:17.548Z,51.98
2019-02-22T19:40:25.474Z,65.80
2019-02-22T19:45:27.387Z,58.17
2019-02-22T19:50:28.918Z,54.63
2019-02-22T19:55:30.400Z,59.38
2019-02-22T20:00:32.010Z,58.33
2019-02-22T20:05:33.596Z,58.33
2019-02-22T20:10:35.089Z,62.27
2019-02-22T20:15:36.566Z,63.65
2019-02-22T20:20:38.173Z,59.70
2019-02-22T20:25:42.934Z,63.75
2019-02-22T20:30:45.202Z,59.48
2019-02-22T20:35:46.652Z,58.33
2019-02-22T20:40:51.169Z,64.55
2019-02-22T20:45:52.733Z,60.73
2019-02-22T20:50:54.049Z,64.17
2019-02-22T20:55:55.520Z,56.77
2019-02-22T21:00:56.929Z,62.05
2019-02-22T21:05:58.246Z,62.00
2019-02-22T21:10:59.826Z,47.50
2019-02-22T21:16:01.255Z,60.45
2019-02-22T21:21:02.595Z,61.28
2019-02-22T21:26:03.935Z,59.98
2019-02-22T21:31:05.251Z,55.70
2019-02-22T21:36:07.533Z,65.15
2019-02-22T21:41:27.864Z,61.77
2019-02-22T21:46:29.343Z,62.78
2019-02-22T21:51:30.724Z,56.70
2019-02-22T21:56:32.179Z,63.68
2019-02-22T22:01:33.602Z,54.83
2019-02-22T22:06:35.110Z,56.98
2019-02-22T22:11:36.508Z,62.40
2019-02-22T22:16:38.038Z,60.03
2019-02-22T22:21:39.942Z,62.83
2019-02-22T22:26:41.264Z,57.40
2019-02-22T22:31:42.747Z,54.63
2019-02-22T22:36:44.380Z,58.08
2019-02-22T22:41:46.254Z,59.42
2019-02-22T22:46:48.130Z,62.70
2019-02-22T22:51:49.889Z,60.98
2019-02-22T22:56:51.625Z,60.63
2019-02-22T23:01:54.902Z,68.15
2019-02-22T23:06:56.373Z,61.33
2019-02-22T23:11:58.159Z,66.77
2019-02-22T23:16:59.831Z,71.85
2019-02-22T23:22:01.667Z,69.15
2019-02-22T23:27:03.061Z,64.80
2019-02-22T23:32:04.955Z,71.90
2019-02-22T23:37:06.476Z,71.05
2019-02-22T23:42:07.797Z,81.40
2019-02-22T23:47:09.828Z,74.42
2019-02-22T23:52:11.288Z,73.95
2019-02-22T23:57:12.667Z,73.25
